map of NGP home
NGP - Airport
Location
City:  Corpus Christi, Texas, United States
Name:Corpus Christi NAS/Truax Field
ICAO:KNGP
IATA:NGP
FAA LID:NGP

Details
Type:Airport (Airfield)
Use:Military
Latitude:2741'34"N (27.692701)
Longitude:9717'25"W (-97.290376)
Datum:WGS 1984
Elevation:18 ft (5 m)
Variation:3.52E (WMM2015 magnetic declination)
-0.11 annual change
Runways:4
Longest:8002 × 200 ft (2439 × 61 m), paved

Time
Time Zone:UTC-6 (DST-5)
Local Time:

Weather
METAR:KNGP 221556Z 01014KT 10SM SCT033 BKN048 OVC060 20/14 A3015 RMK SLP209 T02000144

Related Locations
Nearby:
Farthest:RRG: 11105 mi / 17871 km
Plaine Corail [Sir Gatan Duval Airport (Plaine Corail Airport)], Rodrigues Island, MU

Find:

   beyond  
but within

Other Information
Maps:
NOTAMs:
Links:
Sources:

  
  • flag of United States
  • flag of Texas
  • flag of Corpus Christi
  

Airport Diagram

Airport diagram for NGP

Airport diagram PDF

Sectional Chart

Flight Planning
at skyvector.com

Satellite Image

Google Maps Satellite view

 

Copyright © 2004-2018 Karl L. Swartz. All rights reserved.
The Great Circle Mapper name and logo are trademarks of the Great Circle Mapper.
All other trademarks mentioned herein belong to their respective owners.
Please see credits for attibutions and further copyright information.

  Follow gcmap on Facebook Follow gcmap on Twitter Follow gcmap on Google+ GCmap on LinkedIn

hCard Microformat

Geo Microformat